UNBB 052200Z 19003MPS 9999 BKN036CB 14/12 Q1000 R24/290155 NOSIG RMK QFE728
QNH:(hPa/inHg/mmHg)1000 / 29.53 / 750
QFE:(hPa/inHg/mmHg)969 / 28.61 / 727
Temperature14
Dew Point12
Visibility> 10000
Weather
Cloud CoverBKN (3600);
Transition Height700 m./3200 ft.
Transition LevelFL50
SQUAWK